sensor_id;sensor_type;location;lat;lon;timestamp;P1;durP1;ratioP1;P2;durP2;ratioP2
28796;SDS011;24974;54.444;18.560;2022-12-07T00:00:20;45.85;;;24.80;;
28796;SDS011;24974;54.444;18.560;2022-12-07T00:02:51;43.83;;;26.20;;
28796;SDS011;24974;54.444;18.560;2022-12-07T00:05:21;47.00;;;25.83;;
28796;SDS011;24974;54.444;18.560;2022-12-07T00:07:52;39.10;;;24.88;;
28796;SDS011;24974;54.444;18.560;2022-12-07T00:10:23;37.03;;;23.63;;
28796;SDS011;24974;54.444;18.560;2022-12-07T00:12:54;38.25;;;23.65;;
28796;SDS011;24974;54.444;18.560;2022-12-07T00:15:25;38.80;;;23.50;;
28796;SDS011;24974;54.444;18.560;2022-12-07T00:17:56;37.75;;;22.60;;
28796;SDS011;24974;54.444;18.560;2022-12-07T00:20:27;38.92;;;22.27;;
28796;SDS011;24974;54.444;18.560;2022-12-07T00:22:57;39.67;;;23.55;;
28796;SDS011;24974;54.444;18.560;2022-12-07T00:25:29;34.78;;;20.98;;
28796;SDS011;24974;54.444;18.560;2022-12-07T00:28:01;39.40;;;22.58;;
28796;SDS011;24974;54.444;18.560;2022-12-07T00:30:31;37.90;;;20.70;;
28796;SDS011;24974;54.444;18.560;2022-12-07T00:33:02;39.15;;;22.50;;
28796;SDS011;24974;54.444;18.560;2022-12-07T00:35:33;33.15;;;21.17;;
28796;SDS011;24974;54.444;18.560;2022-12-07T00:38:04;38.15;;;22.05;;
28796;SDS011;24974;54.444;18.560;2022-12-07T00:40:35;37.85;;;21.23;;
28796;SDS011;24974;54.444;18.560;2022-12-07T00:43:06;35.38;;;20.73;;
28796;SDS011;24974;54.444;18.560;2022-12-07T00:45:37;37.30;;;21.67;;
28796;SDS011;24974;54.444;18.560;2022-12-07T00:48:07;37.42;;;21.10;;
28796;SDS011;24974;54.444;18.560;2022-12-07T00:50:38;36.45;;;22.05;;
28796;SDS011;24974;54.444;18.560;2022-12-07T00:53:09;37.63;;;21.67;;
28796;SDS011;24974;54.444;18.560;2022-12-07T00:55:40;35.83;;;22.70;;
28796;SDS011;24974;54.444;18.560;2022-12-07T00:58:12;34.70;;;19.90;;
28796;SDS011;24974;54.444;18.560;2022-12-07T01:00:43;35.58;;;19.58;;
28796;SDS011;24974;54.444;18.560;2022-12-07T01:03:14;30.92;;;18.52;;
28796;SDS011;24974;54.444;18.560;2022-12-07T01:05:50;29.95;;;18.48;;
28796;SDS011;24974;54.444;18.560;2022-12-07T01:08:23;33.35;;;20.35;;
28796;SDS011;24974;54.444;18.560;2022-12-07T01:11:02;31.10;;;18.17;;
28796;SDS011;24974;54.444;18.560;2022-12-07T01:13:35;31.88;;;19.05;;
28796;SDS011;24974;54.444;18.560;2022-12-07T01:16:06;32.22;;;19.50;;
28796;SDS011;24974;54.444;18.560;2022-12-07T01:18:40;28.30;;;16.88;;
28796;SDS011;24974;54.444;18.560;2022-12-07T01:21:14;28.17;;;17.45;;
28796;SDS011;24974;54.444;18.560;2022-12-07T01:23:47;28.93;;;18.07;;
28796;SDS011;24974;54.444;18.560;2022-12-07T07:25:22;7.32;;;5.25;;
28796;SDS011;24974;54.444;18.560;2022-12-07T07:27:53;8.70;;;6.57;;
28796;SDS011;24974;54.444;18.560;2022-12-07T07:30:24;7.80;;;7.00;;
28796;SDS011;24974;54.444;18.560;2022-12-07T07:32:56;11.27;;;6.70;;
28796;SDS011;24974;54.444;18.560;2022-12-07T07:35:29;10.20;;;7.15;;
28796;SDS011;24974;54.444;18.560;2022-12-07T07:38:01;8.98;;;6.88;;
28796;SDS011;24974;54.444;18.560;2022-12-07T07:40:33;10.27;;;6.63;;
28796;SDS011;24974;54.444;18.560;2022-12-07T07:43:05;7.40;;;6.60;;
28796;SDS011;24974;54.444;18.560;2022-12-07T07:45:36;9.27;;;7.57;;
28796;SDS011;24974;54.444;18.560;2022-12-07T07:48:07;9.00;;;6.70;;
28796;SDS011;24974;54.444;18.560;2022-12-07T07:50:39;8.07;;;6.40;;
28796;SDS011;24974;54.444;18.560;2022-12-07T07:53:10;8.85;;;7.22;;
28796;SDS011;24974;54.444;18.560;2022-12-07T07:55:41;9.93;;;8.77;;
28796;SDS011;24974;54.444;18.560;2022-12-07T07:58:12;9.52;;;7.43;;
28796;SDS011;24974;54.444;18.560;2022-12-07T08:00:42;11.60;;;7.78;;
28796;SDS011;24974;54.444;18.560;2022-12-07T08:03:13;9.70;;;8.27;;
28796;SDS011;24974;54.444;18.560;2022-12-07T08:05:44;10.80;;;8.50;;
28796;SDS011;24974;54.444;18.560;2022-12-07T08:08:15;10.90;;;9.88;;
28796;SDS011;24974;54.444;18.560;2022-12-07T08:10:46;11.13;;;8.88;;
28796;SDS011;24974;54.444;18.560;2022-12-07T08:13:17;10.52;;;9.00;;
28796;SDS011;24974;54.444;18.560;2022-12-07T08:15:48;9.82;;;8.52;;
28796;SDS011;24974;54.444;18.560;2022-12-07T08:18:19;10.77;;;9.30;;
28796;SDS011;24974;54.444;18.560;2022-12-07T08:20:49;11.60;;;9.38;;
28796;SDS011;24974;54.444;18.560;2022-12-07T08:23:20;10.38;;;8.50;;
28796;SDS011;24974;54.444;18.560;2022-12-07T08:25:51;11.50;;;9.13;;
28796;SDS011;24974;54.444;18.560;2022-12-07T08:28:22;10.13;;;9.07;;
28796;SDS011;24974;54.444;18.560;2022-12-07T08:30:58;13.27;;;10.48;;
28796;SDS011;24974;54.444;18.560;2022-12-07T08:33:33;10.52;;;8.57;;
28796;SDS011;24974;54.444;18.560;2022-12-07T08:36:04;10.10;;;8.80;;
28796;SDS011;24974;54.444;18.560;2022-12-07T08:38:40;9.77;;;8.43;;
28796;SDS011;24974;54.444;18.560;2022-12-07T08:41:12;10.20;;;7.55;;
28796;SDS011;24974;54.444;18.560;2022-12-07T08:43:43;11.38;;;8.60;;
28796;SDS011;24974;54.444;18.560;2022-12-07T08:46:18;8.60;;;7.72;;
28796;SDS011;24974;54.444;18.560;2022-12-07T08:48:55;11.25;;;9.95;;
28796;SDS011;24974;54.444;18.560;2022-12-07T08:51:48;10.40;;;8.88;;
28796;SDS011;24974;54.444;18.560;2022-12-07T08:54:19;9.82;;;7.43;;
28796;SDS011;24974;54.444;18.560;2022-12-07T08:56:50;10.90;;;7.78;;
28796;SDS011;24974;54.444;18.560;2022-12-07T08:59:23;12.52;;;8.27;;
28796;SDS011;24974;54.444;18.560;2022-12-07T09:01:54;11.30;;;7.20;;
28796;SDS011;24974;54.444;18.560;2022-12-07T09:04:26;9.10;;;6.95;;
28796;SDS011;24974;54.444;18.560;2022-12-07T09:06:57;8.27;;;6.85;;
28796;SDS011;24974;54.444;18.560;2022-12-07T09:09:29;7.78;;;6.97;;
28796;SDS011;24974;54.444;18.560;2022-12-07T09:12:00;8.18;;;6.75;;
28796;SDS011;24974;54.444;18.560;2022-12-07T09:14:31;9.00;;;6.03;;
28796;SDS011;24974;54.444;18.560;2022-12-07T09:17:10;7.28;;;6.43;;
28796;SDS011;24974;54.444;18.560;2022-12-07T09:19:42;7.47;;;6.25;;
28796;SDS011;24974;54.444;18.560;2022-12-07T09:22:14;9.23;;;6.40;;
28796;SDS011;24974;54.444;18.560;2022-12-07T09:24:45;7.70;;;6.90;;
28796;SDS011;24974;54.444;18.560;2022-12-07T09:27:16;7.38;;;6.50;;
28796;SDS011;24974;54.444;18.560;2022-12-07T09:29:49;7.63;;;6.75;;
28796;SDS011;24974;54.444;18.560;2022-12-07T09:32:20;10.48;;;7.10;;
28796;SDS011;24974;54.444;18.560;2022-12-07T09:34:51;7.53;;;6.32;;
28796;SDS011;24974;54.444;18.560;2022-12-07T09:37:22;8.70;;;6.90;;
28796;SDS011;24974;54.444;18.560;2022-12-07T09:39:53;7.57;;;6.57;;
28796;SDS011;24974;54.444;18.560;2022-12-07T09:42:28;8.82;;;5.88;;
28796;SDS011;24974;54.444;18.560;2022-12-07T09:45:05;7.13;;;6.43;;
28796;SDS011;24974;54.444;18.560;2022-12-07T09:47:37;7.70;;;6.88;;
28796;SDS011;24974;54.444;18.560;2022-12-07T09:50:13;10.65;;;6.97;;
28796;SDS011;24974;54.444;18.560;2022-12-07T09:52:45;9.25;;;7.88;;
28796;SDS011;24974;54.444;18.560;2022-12-07T09:55:26;8.85;;;7.22;;
28796;SDS011;24974;54.444;18.560;2022-12-07T09:57:59;7.70;;;7.00;;
28796;SDS011;24974;54.444;18.560;2022-12-07T10:00:30;7.68;;;6.88;;
28796;SDS011;24974;54.444;18.560;2022-12-07T10:03:01;11.10;;;7.70;;
28796;SDS011;24974;54.444;18.560;2022-12-07T10:05:37;8.63;;;7.82;;
28796;SDS011;24974;54.444;18.560;2022-12-07T10:08:12;8.68;;;7.78;;
28796;SDS011;24974;54.444;18.560;2022-12-07T10:10:47;8.40;;;7.47;;
28796;SDS011;24974;54.444;18.560;2022-12-07T10:13:43;9.65;;;6.57;;
28796;SDS011;24974;54.444;18.560;2022-12-07T10:18:56;14.02;;;7.57;;
28796;SDS011;24974;54.444;18.560;2022-12-07T10:21:41;9.05;;;7.50;;
28796;SDS011;24974;54.444;18.560;2022-12-07T10:24:35;8.27;;;7.38;;
28796;SDS011;24974;54.444;18.560;2022-12-07T10:27:26;10.13;;;8.27;;
28796;SDS011;24974;54.444;18.560;2022-12-07T10:30:01;11.00;;;8.50;;
28796;SDS011;24974;54.444;18.560;2022-12-07T10:32:38;9.48;;;8.07;;
28796;SDS011;24974;54.444;18.560;2022-12-07T10:38:00;10.15;;;8.38;;
28796;SDS011;24974;54.444;18.560;2022-12-07T10:40:32;9.55;;;8.38;;
28796;SDS011;24974;54.444;18.560;2022-12-07T10:43:18;11.05;;;8.65;;
28796;SDS011;24974;54.444;18.560;2022-12-07T10:48:33;12.38;;;9.50;;
28796;SDS011;24974;54.444;18.560;2022-12-07T10:57:47;12.27;;;8.73;;
28796;SDS011;24974;54.444;18.560;2022-12-07T11:00:37;15.25;;;10.30;;
28796;SDS011;24974;54.444;18.560;2022-12-07T11:20:36;16.98;;;10.13;;
28796;SDS011;24974;54.444;18.560;2022-12-07T11:23:40;10.35;;;8.23;;
28796;SDS011;24974;54.444;18.560;2022-12-07T11:28:56;12.07;;;9.65;;
28796;SDS011;24974;54.444;18.560;2022-12-07T11:38:16;11.25;;;8.57;;
28796;SDS011;24974;54.444;18.560;2022-12-07T11:40:49;9.68;;;8.43;;
28796;SDS011;24974;54.444;18.560;2022-12-07T11:51:55;11.02;;;9.20;;
28796;SDS011;24974;54.444;18.560;2022-12-07T11:54:32;9.35;;;8.35;;
28796;SDS011;24974;54.444;18.560;2022-12-07T11:57:13;10.13;;;9.13;;
28796;SDS011;24974;54.444;18.560;2022-12-07T11:59:57;12.98;;;9.00;;
28796;SDS011;24974;54.444;18.560;2022-12-07T12:02:44;9.25;;;6.95;;
28796;SDS011;24974;54.444;18.560;2022-12-07T12:05:41;11.43;;;9.13;;
28796;SDS011;24974;54.444;18.560;2022-12-07T12:08:16;10.70;;;8.63;;
28796;SDS011;24974;54.444;18.560;2022-12-07T12:10:55;12.60;;;9.15;;
28796;SDS011;24974;54.444;18.560;2022-12-07T12:13:48;12.52;;;9.57;;
28796;SDS011;24974;54.444;18.560;2022-12-07T12:19:30;9.88;;;8.27;;
28796;SDS011;24974;54.444;18.560;2022-12-07T12:22:16;11.05;;;8.52;;
28796;SDS011;24974;54.444;18.560;2022-12-07T12:24:51;9.98;;;8.63;;
28796;SDS011;24974;54.444;18.560;2022-12-07T12:27:32;11.38;;;9.25;;
28796;SDS011;24974;54.444;18.560;2022-12-07T12:30:06;11.88;;;9.10;;
28796;SDS011;24974;54.444;18.560;2022-12-07T12:33:00;12.38;;;9.35;;
28796;SDS011;24974;54.444;18.560;2022-12-07T12:35:34;12.82;;;9.63;;
28796;SDS011;24974;54.444;18.560;2022-12-07T12:41:00;12.25;;;9.10;;
28796;SDS011;24974;54.444;18.560;2022-12-07T12:51:58;10.93;;;9.73;;
28796;SDS011;24974;54.444;18.560;2022-12-07T12:54:34;10.40;;;9.30;;
28796;SDS011;24974;54.444;18.560;2022-12-07T13:07:51;10.35;;;8.35;;
28796;SDS011;24974;54.444;18.560;2022-12-07T13:15:48;12.20;;;9.90;;
28796;SDS011;24974;54.444;18.560;2022-12-07T13:18:37;12.77;;;9.05;;
28796;SDS011;24974;54.444;18.560;2022-12-07T13:28:51;11.80;;;8.90;;
28796;SDS011;24974;54.444;18.560;2022-12-07T13:31:38;9.93;;;8.32;;
28796;SDS011;24974;54.444;18.560;2022-12-07T13:39:50;12.00;;;8.57;;
28796;SDS011;24974;54.444;18.560;2022-12-07T13:42:29;13.45;;;8.73;;
28796;SDS011;24974;54.444;18.560;2022-12-07T13:45:20;10.80;;;8.88;;
28796;SDS011;24974;54.444;18.560;2022-12-07T13:51:05;11.52;;;8.27;;
28796;SDS011;24974;54.444;18.560;2022-12-07T13:53:52;12.52;;;7.60;;
28796;SDS011;24974;54.444;18.560;2022-12-07T13:56:32;10.98;;;7.57;;
28796;SDS011;24974;54.444;18.560;2022-12-07T13:59:05;9.02;;;7.20;;
28796;SDS011;24974;54.444;18.560;2022-12-07T14:01:44;13.52;;;7.80;;
28796;SDS011;24974;54.444;18.560;2022-12-07T14:04:19;10.55;;;7.70;;
28796;SDS011;24974;54.444;18.560;2022-12-07T14:07:01;10.07;;;7.85;;
28796;SDS011;24974;54.444;18.560;2022-12-07T14:09:54;13.32;;;8.18;;
28796;SDS011;24974;54.444;18.560;2022-12-07T14:12:30;22.92;;;8.25;;
28796;SDS011;24974;54.444;18.560;2022-12-07T14:15:02;12.45;;;8.48;;
28796;SDS011;24974;54.444;18.560;2022-12-07T14:17:34;12.32;;;8.50;;
28796;SDS011;24974;54.444;18.560;2022-12-07T14:20:27;12.18;;;8.13;;
28796;SDS011;24974;54.444;18.560;2022-12-07T14:23:21;14.95;;;7.93;;
28796;SDS011;24974;54.444;18.560;2022-12-07T14:26:04;9.23;;;7.10;;
28796;SDS011;24974;54.444;18.560;2022-12-07T14:28:37;10.65;;;7.65;;
28796;SDS011;24974;54.444;18.560;2022-12-07T14:31:13;15.50;;;8.73;;
28796;SDS011;24974;54.444;18.560;2022-12-07T14:33:46;11.70;;;7.95;;
28796;SDS011;24974;54.444;18.560;2022-12-07T14:36:17;14.10;;;8.73;;
28796;SDS011;24974;54.444;18.560;2022-12-07T14:38:48;14.07;;;10.63;;
28796;SDS011;24974;54.444;18.560;2022-12-07T14:41:19;11.68;;;8.50;;
28796;SDS011;24974;54.444;18.560;2022-12-07T14:44:11;14.20;;;8.70;;
28796;SDS011;24974;54.444;18.560;2022-12-07T14:46:42;10.15;;;8.13;;
28796;SDS011;24974;54.444;18.560;2022-12-07T14:49:13;16.65;;;8.70;;
28796;SDS011;24974;54.444;18.560;2022-12-07T14:51:44;14.00;;;8.45;;
28796;SDS011;24974;54.444;18.560;2022-12-07T14:54:18;23.45;;;15.00;;
28796;SDS011;24974;54.444;18.560;2022-12-07T14:56:50;12.00;;;7.93;;
28796;SDS011;24974;54.444;18.560;2022-12-07T14:59:21;11.82;;;8.10;;
28796;SDS011;24974;54.444;18.560;2022-12-07T15:01:52;13.15;;;7.40;;
28796;SDS011;24974;54.444;18.560;2022-12-07T15:04:23;11.93;;;7.18;;
28796;SDS011;24974;54.444;18.560;2022-12-07T15:06:55;10.25;;;7.35;;
28796;SDS011;24974;54.444;18.560;2022-12-07T15:09:30;10.02;;;6.93;;
28796;SDS011;24974;54.444;18.560;2022-12-07T15:12:01;9.73;;;7.15;;
28796;SDS011;24974;54.444;18.560;2022-12-07T15:14:32;10.73;;;7.45;;
28796;SDS011;24974;54.444;18.560;2022-12-07T15:17:03;9.20;;;7.47;;
28796;SDS011;24974;54.444;18.560;2022-12-07T15:19:34;11.10;;;6.35;;
28796;SDS011;24974;54.444;18.560;2022-12-07T15:22:05;8.77;;;6.90;;
28796;SDS011;24974;54.444;18.560;2022-12-07T15:24:36;12.80;;;7.57;;
28796;SDS011;24974;54.444;18.560;2022-12-07T15:27:07;11.18;;;7.85;;
28796;SDS011;24974;54.444;18.560;2022-12-07T15:29:38;9.95;;;6.93;;
28796;SDS011;24974;54.444;18.560;2022-12-07T15:32:08;14.35;;;7.85;;
28796;SDS011;24974;54.444;18.560;2022-12-07T15:34:39;11.45;;;8.13;;
28796;SDS011;24974;54.444;18.560;2022-12-07T15:37:10;11.88;;;7.15;;
28796;SDS011;24974;54.444;18.560;2022-12-07T15:39:41;10.27;;;6.78;;
28796;SDS011;24974;54.444;18.560;2022-12-07T15:42:12;7.93;;;6.90;;
28796;SDS011;24974;54.444;18.560;2022-12-07T15:44:43;7.45;;;6.13;;
28796;SDS011;24974;54.444;18.560;2022-12-07T15:47:33;8.80;;;6.93;;
28796;SDS011;24974;54.444;18.560;2022-12-07T15:50:09;8.07;;;6.07;;
28796;SDS011;24974;54.444;18.560;2022-12-07T15:52:43;9.48;;;6.55;;
28796;SDS011;24974;54.444;18.560;2022-12-07T15:55:14;13.45;;;7.13;;
28796;SDS011;24974;54.444;18.560;2022-12-07T15:57:44;11.23;;;6.90;;
28796;SDS011;24974;54.444;18.560;2022-12-07T16:00:15;9.57;;;7.07;;
28796;SDS011;24974;54.444;18.560;2022-12-07T16:02:47;8.15;;;6.25;;
28796;SDS011;24974;54.444;18.560;2022-12-07T16:05:17;11.90;;;8.35;;
28796;SDS011;24974;54.444;18.560;2022-12-07T16:07:48;8.98;;;6.60;;
28796;SDS011;24974;54.444;18.560;2022-12-07T16:10:19;6.65;;;5.95;;
28796;SDS011;24974;54.444;18.560;2022-12-07T16:12:50;8.10;;;6.55;;
28796;SDS011;24974;54.444;18.560;2022-12-07T16:15:21;10.32;;;6.38;;
28796;SDS011;24974;54.444;18.560;2022-12-07T16:17:52;7.43;;;6.30;;
28796;SDS011;24974;54.444;18.560;2022-12-07T16:20:23;9.68;;;6.47;;
28796;SDS011;24974;54.444;18.560;2022-12-07T16:22:54;9.10;;;5.90;;
28796;SDS011;24974;54.444;18.560;2022-12-07T16:25:25;8.45;;;7.70;;
28796;SDS011;24974;54.444;18.560;2022-12-07T16:27:56;8.68;;;6.20;;
28796;SDS011;24974;54.444;18.560;2022-12-07T16:30:27;7.22;;;5.97;;
28796;SDS011;24974;54.444;18.560;2022-12-07T16:32:57;10.50;;;5.38;;
28796;SDS011;24974;54.444;18.560;2022-12-07T16:35:28;9.85;;;6.28;;
28796;SDS011;24974;54.444;18.560;2022-12-07T16:37:59;7.97;;;6.35;;
28796;SDS011;24974;54.444;18.560;2022-12-07T16:40:30;8.63;;;5.70;;
28796;SDS011;24974;54.444;18.560;2022-12-07T16:43:01;7.45;;;5.10;;
28796;SDS011;24974;54.444;18.560;2022-12-07T16:45:32;7.05;;;5.18;;
28796;SDS011;24974;54.444;18.560;2022-12-07T16:48:02;6.65;;;5.70;;
28796;SDS011;24974;54.444;18.560;2022-12-07T16:50:33;5.63;;;4.82;;
28796;SDS011;24974;54.444;18.560;2022-12-07T16:53:04;6.45;;;5.82;;
28796;SDS011;24974;54.444;18.560;2022-12-07T16:55:39;7.03;;;6.10;;
28796;SDS011;24974;54.444;18.560;2022-12-07T16:58:12;5.75;;;5.20;;
28796;SDS011;24974;54.444;18.560;2022-12-07T17:00:44;7.03;;;5.47;;
28796;SDS011;24974;54.444;18.560;2022-12-07T17:03:15;6.53;;;5.18;;
28796;SDS011;24974;54.444;18.560;2022-12-07T17:05:47;7.78;;;5.72;;
28796;SDS011;24974;54.444;18.560;2022-12-07T17:08:19;7.40;;;6.68;;
28796;SDS011;24974;54.444;18.560;2022-12-07T17:10:50;6.78;;;6.07;;
28796;SDS011;24974;54.444;18.560;2022-12-07T17:13:20;6.40;;;5.85;;
28796;SDS011;24974;54.444;18.560;2022-12-07T17:16:09;6.43;;;5.20;;
28796;SDS011;24974;54.444;18.560;2022-12-07T17:18:40;8.07;;;5.80;;
28796;SDS011;24974;54.444;18.560;2022-12-07T17:21:11;7.38;;;6.25;;
28796;SDS011;24974;54.444;18.560;2022-12-07T17:23:42;5.43;;;4.93;;
28796;SDS011;24974;54.444;18.560;2022-12-07T17:26:14;5.22;;;4.63;;
28796;SDS011;24974;54.444;18.560;2022-12-07T17:28:47;5.75;;;4.45;;
28796;SDS011;24974;54.444;18.560;2022-12-07T17:31:19;4.93;;;4.35;;
28796;SDS011;24974;54.444;18.560;2022-12-07T17:33:52;7.22;;;4.40;;
28796;SDS011;24974;54.444;18.560;2022-12-07T17:36:24;5.80;;;4.18;;
28796;SDS011;24974;54.444;18.560;2022-12-07T17:38:57;6.18;;;4.53;;
28796;SDS011;24974;54.444;18.560;2022-12-07T17:41:28;6.57;;;4.80;;
28796;SDS011;24974;54.444;18.560;2022-12-07T17:44:17;5.88;;;4.47;;
28796;SDS011;24974;54.444;18.560;2022-12-07T17:46:51;5.15;;;4.65;;
28796;SDS011;24974;54.444;18.560;2022-12-07T17:49:28;8.25;;;4.78;;
28796;SDS011;24974;54.444;18.560;2022-12-07T17:51:59;5.93;;;4.55;;
28796;SDS011;24974;54.444;18.560;2022-12-07T17:54:49;5.38;;;4.40;;
28796;SDS011;24974;54.444;18.560;2022-12-07T17:57:19;4.60;;;4.20;;
28796;SDS011;24974;54.444;18.560;2022-12-07T17:59:50;6.32;;;5.72;;
28796;SDS011;24974;54.444;18.560;2022-12-07T18:02:21;10.15;;;6.47;;
28796;SDS011;24974;54.444;18.560;2022-12-07T18:04:52;6.82;;;6.00;;
28796;SDS011;24974;54.444;18.560;2022-12-07T18:07:23;5.65;;;5.05;;
28796;SDS011;24974;54.444;18.560;2022-12-07T18:09:54;5.68;;;4.80;;
28796;SDS011;24974;54.444;18.560;2022-12-07T18:12:25;6.60;;;4.93;;
28796;SDS011;24974;54.444;18.560;2022-12-07T18:14:55;7.43;;;4.63;;
28796;SDS011;24974;54.444;18.560;2022-12-07T18:17:26;8.65;;;7.95;;
28796;SDS011;24974;54.444;18.560;2022-12-07T18:19:57;6.28;;;4.20;;
28796;SDS011;24974;54.444;18.560;2022-12-07T18:22:28;4.78;;;4.13;;
28796;SDS011;24974;54.444;18.560;2022-12-07T18:24:59;4.47;;;4.07;;
28796;SDS011;24974;54.444;18.560;2022-12-07T18:27:30;4.95;;;4.10;;
28796;SDS011;24974;54.444;18.560;2022-12-07T18:30:00;6.28;;;4.70;;
28796;SDS011;24974;54.444;18.560;2022-12-07T18:32:31;5.50;;;4.05;;
28796;SDS011;24974;54.444;18.560;2022-12-07T18:35:02;5.65;;;4.35;;
28796;SDS011;24974;54.444;18.560;2022-12-07T18:37:33;5.00;;;4.20;;
28796;SDS011;24974;54.444;18.560;2022-12-07T18:40:04;5.82;;;4.35;;
28796;SDS011;24974;54.444;18.560;2022-12-07T18:42:36;4.72;;;4.25;;
28796;SDS011;24974;54.444;18.560;2022-12-07T18:45:07;4.60;;;4.20;;
28796;SDS011;24974;54.444;18.560;2022-12-07T18:47:38;4.63;;;3.97;;
28796;SDS011;24974;54.444;18.560;2022-12-07T18:50:09;4.85;;;4.35;;
28796;SDS011;24974;54.444;18.560;2022-12-07T18:52:40;4.53;;;4.13;;
28796;SDS011;24974;54.444;18.560;2022-12-07T18:55:10;6.97;;;4.93;;
28796;SDS011;24974;54.444;18.560;2022-12-07T18:57:41;4.72;;;4.22;;
28796;SDS011;24974;54.444;18.560;2022-12-07T19:00:12;5.95;;;4.20;;
28796;SDS011;24974;54.444;18.560;2022-12-07T19:02:43;5.90;;;5.05;;
28796;SDS011;24974;54.444;18.560;2022-12-07T19:05:14;4.75;;;4.25;;
28796;SDS011;24974;54.444;18.560;2022-12-07T19:07:46;5.28;;;4.75;;
28796;SDS011;24974;54.444;18.560;2022-12-07T19:10:17;4.85;;;4.38;;
28796;SDS011;24974;54.444;18.560;2022-12-07T19:12:49;5.72;;;4.30;;
28796;SDS011;24974;54.444;18.560;2022-12-07T19:15:20;7.32;;;4.38;;
28796;SDS011;24974;54.444;18.560;2022-12-07T19:17:51;5.20;;;4.55;;
28796;SDS011;24974;54.444;18.560;2022-12-07T19:20:21;4.68;;;3.92;;
28796;SDS011;24974;54.444;18.560;2022-12-07T19:22:52;5.90;;;3.80;;
28796;SDS011;24974;54.444;18.560;2022-12-07T19:25:23;4.93;;;3.85;;
28796;SDS011;24974;54.444;18.560;2022-12-07T19:27:54;5.28;;;4.22;;
28796;SDS011;24974;54.444;18.560;2022-12-07T19:30:25;5.05;;;4.20;;
28796;SDS011;24974;54.444;18.560;2022-12-07T19:32:56;5.00;;;4.47;;
28796;SDS011;24974;54.444;18.560;2022-12-07T19:35:26;4.68;;;4.03;;
28796;SDS011;24974;54.444;18.560;2022-12-07T19:37:57;6.78;;;4.35;;
28796;SDS011;24974;54.444;18.560;2022-12-07T19:40:28;5.43;;;4.40;;
28796;SDS011;24974;54.444;18.560;2022-12-07T19:42:59;5.40;;;4.30;;
28796;SDS011;24974;54.444;18.560;2022-12-07T19:45:30;4.25;;;3.95;;
28796;SDS011;24974;54.444;18.560;2022-12-07T19:48:03;4.97;;;3.65;;
28796;SDS011;24974;54.444;18.560;2022-12-07T19:50:34;4.60;;;3.65;;
28796;SDS011;24974;54.444;18.560;2022-12-07T19:53:05;4.82;;;3.90;;
28796;SDS011;24974;54.444;18.560;2022-12-07T19:55:39;4.57;;;4.18;;
28796;SDS011;24974;54.444;18.560;2022-12-07T19:58:12;3.95;;;3.50;;
28796;SDS011;24974;54.444;18.560;2022-12-07T20:00:43;4.35;;;3.95;;
28796;SDS011;24974;54.444;18.560;2022-12-07T20:03:14;6.88;;;5.28;;
28796;SDS011;24974;54.444;18.560;2022-12-07T20:05:45;4.90;;;3.92;;
28796;SDS011;24974;54.444;18.560;2022-12-07T20:08:16;3.95;;;3.58;;
28796;SDS011;24974;54.444;18.560;2022-12-07T20:10:46;5.75;;;5.35;;
28796;SDS011;24974;54.444;18.560;2022-12-07T20:13:18;4.95;;;3.92;;
28796;SDS011;24974;54.444;18.560;2022-12-07T20:16:02;4.90;;;4.10;;
28796;SDS011;24974;54.444;18.560;2022-12-07T20:18:34;5.72;;;4.68;;
28796;SDS011;24974;54.444;18.560;2022-12-07T20:21:05;4.90;;;4.25;;
28796;SDS011;24974;54.444;18.560;2022-12-07T20:23:36;5.45;;;4.18;;
28796;SDS011;24974;54.444;18.560;2022-12-07T20:26:08;4.93;;;4.43;;
28796;SDS011;24974;54.444;18.560;2022-12-07T20:28:40;5.45;;;4.25;;
28796;SDS011;24974;54.444;18.560;2022-12-07T20:31:15;6.05;;;4.97;;
28796;SDS011;24974;54.444;18.560;2022-12-07T20:33:47;7.28;;;4.25;;
28796;SDS011;24974;54.444;18.560;2022-12-07T20:36:18;5.28;;;4.13;;
28796;SDS011;24974;54.444;18.560;2022-12-07T20:38:49;5.25;;;4.53;;
28796;SDS011;24974;54.444;18.560;2022-12-07T20:41:21;7.07;;;4.90;;
28796;SDS011;24974;54.444;18.560;2022-12-07T20:44:14;5.53;;;4.85;;
28796;SDS011;24974;54.444;18.560;2022-12-07T20:46:45;6.35;;;5.47;;
28796;SDS011;24974;54.444;18.560;2022-12-07T20:49:16;6.57;;;4.90;;
28796;SDS011;24974;54.444;18.560;2022-12-07T20:51:47;5.47;;;4.82;;
28796;SDS011;24974;54.444;18.560;2022-12-07T20:54:20;7.63;;;5.47;;
28796;SDS011;24974;54.444;18.560;2022-12-07T20:56:50;5.47;;;4.60;;
28796;SDS011;24974;54.444;18.560;2022-12-07T20:59:21;5.75;;;4.40;;
28796;SDS011;24974;54.444;18.560;2022-12-07T21:01:52;5.10;;;4.60;;
28796;SDS011;24974;54.444;18.560;2022-12-07T21:04:23;5.82;;;4.22;;
28796;SDS011;24974;54.444;18.560;2022-12-07T21:06:54;4.95;;;3.95;;
28796;SDS011;24974;54.444;18.560;2022-12-07T21:09:25;8.10;;;4.38;;
28796;SDS011;24974;54.444;18.560;2022-12-07T21:11:56;4.90;;;4.10;;
28796;SDS011;24974;54.444;18.560;2022-12-07T21:14:27;4.00;;;3.63;;
28796;SDS011;24974;54.444;18.560;2022-12-07T21:16:58;5.35;;;4.85;;
28796;SDS011;24974;54.444;18.560;2022-12-07T21:19:29;4.00;;;3.70;;
28796;SDS011;24974;54.444;18.560;2022-12-07T21:22:00;7.05;;;4.20;;
28796;SDS011;24974;54.444;18.560;2022-12-07T21:24:30;5.70;;;3.80;;
28796;SDS011;24974;54.444;18.560;2022-12-07T21:27:01;5.75;;;4.07;;
28796;SDS011;24974;54.444;18.560;2022-12-07T21:29:32;5.38;;;3.90;;
28796;SDS011;24974;54.444;18.560;2022-12-07T21:32:03;5.53;;;4.05;;
28796;SDS011;24974;54.444;18.560;2022-12-07T21:34:35;5.38;;;4.68;;
28796;SDS011;24974;54.444;18.560;2022-12-07T21:37:06;6.38;;;5.63;;
28796;SDS011;24974;54.444;18.560;2022-12-07T21:39:37;5.35;;;4.82;;
28796;SDS011;24974;54.444;18.560;2022-12-07T21:42:08;7.68;;;4.53;;
28796;SDS011;24974;54.444;18.560;2022-12-07T21:44:39;6.53;;;4.00;;
28796;SDS011;24974;54.444;18.560;2022-12-07T21:47:10;5.32;;;3.63;;
28796;SDS011;24974;54.444;18.560;2022-12-07T21:49:40;6.22;;;4.43;;
28796;SDS011;24974;54.444;18.560;2022-12-07T21:52:11;5.25;;;4.22;;
28796;SDS011;24974;54.444;18.560;2022-12-07T21:54:42;7.40;;;6.78;;
28796;SDS011;24974;54.444;18.560;2022-12-07T21:57:14;7.88;;;4.28;;
28796;SDS011;24974;54.444;18.560;2022-12-07T21:59:45;4.90;;;4.40;;
28796;SDS011;24974;54.444;18.560;2022-12-07T22:02:16;8.00;;;4.18;;
28796;SDS011;24974;54.444;18.560;2022-12-07T22:04:47;5.05;;;4.55;;
28796;SDS011;24974;54.444;18.560;2022-12-07T22:07:17;4.63;;;3.92;;
28796;SDS011;24974;54.444;18.560;2022-12-07T22:09:48;4.47;;;4.07;;
28796;SDS011;24974;54.444;18.560;2022-12-07T22:12:19;6.00;;;4.07;;
28796;SDS011;24974;54.444;18.560;2022-12-07T22:14:50;6.28;;;4.50;;
28796;SDS011;24974;54.444;18.560;2022-12-07T22:17:39;4.68;;;3.90;;
28796;SDS011;24974;54.444;18.560;2022-12-07T22:20:10;4.57;;;4.18;;
28796;SDS011;24974;54.444;18.560;2022-12-07T22:22:41;5.20;;;4.10;;
28796;SDS011;24974;54.444;18.560;2022-12-07T22:25:12;6.95;;;4.50;;
28796;SDS011;24974;54.444;18.560;2022-12-07T22:27:44;5.63;;;4.40;;
28796;SDS011;24974;54.444;18.560;2022-12-07T22:30:15;5.88;;;4.22;;
28796;SDS011;24974;54.444;18.560;2022-12-07T22:32:46;5.68;;;4.40;;
28796;SDS011;24974;54.444;18.560;2022-12-07T22:35:17;4.07;;;3.70;;
28796;SDS011;24974;54.444;18.560;2022-12-07T22:37:48;4.80;;;4.20;;
28796;SDS011;24974;54.444;18.560;2022-12-07T22:40:19;4.50;;;3.90;;